Terminal Aerodrome Forecast
Issued by NWS

Home | Current Version | Previous Version | Text Only | Print | Product List | Glossary Off
Versions: 1 2 3 4 5 6 7 8 9 10 11 12 13 14 15 16 17 18 19 20 21 22 23 24 25 26

857
FTUS43 KABR 210531
TAFMBG
TAF
KMBG 210531Z 2106/2206 13011KT P6SM SCT200 WS020/18040KT
     FM211500 16018G25KT P6SM SCT250
     FM212000 19011KT P6SM SCT250
     FM212300 01010KT P6SM SCT250=

USA.gov is the U.S. government's official web portal to all federal, state and local government web resources and services.